Time;durP1;ratioP1;P1;durP2;ratioP2;P2;SDS_P1;SDS_P2;PMS_P1;PMS_P2;Temp;Humidity;BMP_temperature;BMP_pressure;BME280_temperature;BME280_humidity;BME280_pressure;Samples;Min_cycle;Max_cycle;Signal;HPM_P1;HPM_P2
2020/12/09 00:01:43;;;;;;;10.13;6.80;;;;;;;4.13;75.25;99116.75;4862279;29;20044;-78
2020/12/09 00:04:09;;;;;;;17.45;8.88;;;;;;;4.15;75.48;99120.78;4845022;29;20029;-77
2020/12/09 00:06:39;;;;;;;9.82;5.88;;;;;;;4.17;75.52;99115.25;4861350;29;20109;-79
2020/12/09 00:09:17;;;;;;;24.17;13.57;;;;;;;4.18;75.52;99122.16;4839508;29;20044;-78
2020/12/09 00:12:01;;;;;;;18.07;7.63;;;;;;;4.18;75.72;99129.28;4838605;29;20021;-82
2020/12/09 00:14:27;;;;;;;11.68;7.40;;;;;;;4.20;75.92;99132.50;4845633;29;20270;-78
2020/12/09 00:16:52;;;;;;;24.10;12.35;;;;;;;4.24;75.68;99137.09;4845610;29;20033;-79
2020/12/09 00:19:18;;;;;;;17.13;10.05;;;;;;;4.27;75.45;99138.47;4845080;29;20032;-77
2020/12/09 00:21:43;;;;;;;21.63;12.80;;;;;;;4.27;75.64;99136.66;4845678;29;20033;-80
2020/12/09 00:24:09;;;;;;;29.52;14.15;;;;;;;4.29;74.91;99137.19;4830961;29;20510;-78
2020/12/09 00:26:34;;;;;;;19.67;8.52;;;;;;;4.30;75.15;99133.53;4828327;29;20034;-79
2020/12/09 00:29:00;;;;;;;14.18;6.20;;;;;;;4.32;75.28;99135.94;4828466;29;20037;-79
2020/12/09 00:31:31;;;;;;;18.60;7.88;;;;;;;4.28;75.38;99137.44;4826976;29;20423;-79
2020/12/09 00:33:58;;;;;;;20.20;10.45;;;;;;;4.27;75.29;99144.59;4827044;29;20116;-79
2020/12/09 00:36:23;;;;;;;19.23;13.25;;;;;;;4.28;75.30;99148.81;4826856;29;20092;-78
2020/12/09 00:38:51;;;;;;;41.38;23.92;;;;;;;4.30;74.78;99148.63;4832649;29;20026;-77
2020/12/09 00:41:19;;;;;;;28.33;15.37;;;;;;;4.32;74.73;99152.63;4845321;29;20507;-78
2020/12/09 00:43:45;;;;;;;15.43;8.87;;;;;;;4.33;74.88;99145.50;4845480;29;20053;-77
2020/12/09 00:46:15;;;;;;;13.93;7.72;;;;;;;4.32;74.98;99146.53;4845434;29;20488;-79
2020/12/09 00:48:41;;;;;;;10.43;5.35;;;;;;;4.32;75.49;99135.94;4846219;29;20050;-79
2020/12/09 00:51:56;;;;;;;13.88;6.50;;;;;;;4.33;75.69;99153.44;4842996;29;20106;-82
2020/12/09 00:54:22;;;;;;;28.88;11.77;;;;;;;4.31;75.14;99147.59;4826156;29;20029;-79
2020/12/09 00:56:47;;;;;;;23.95;11.73;;;;;;;4.31;75.28;99151.03;4826853;29;20559;-80
2020/12/09 00:59:12;;;;;;;16.25;7.75;;;;;;;4.31;75.37;99152.88;4844140;29;20045;-78
2020/12/09 01:01:38;;;;;;;14.40;7.18;;;;;;;4.30;75.24;99148.63;4837385;29;20098;-80
2020/12/09 01:13:43;;;;;;;27.20;11.50;;;;;;;4.38;75.12;99144.81;4843501;29;20095;-80
2020/12/09 01:16:15;;;;;;;22.38;11.35;;;;;;;4.40;74.80;99137.44;4912301;24;20086;-80
2020/12/09 01:18:40;;;;;;;22.80;10.73;;;;;;;4.40;74.47;99145.38;4845258;29;20566;-79
2020/12/09 01:21:06;;;;;;;23.70;11.48;;;;;;;4.41;74.10;99157.59;4844169;29;20097;-78
2020/12/09 01:23:31;;;;;;;21.70;11.85;;;;;;;4.41;73.97;99139.06;4855188;29;20029;-78
2020/12/09 01:25:56;;;;;;;20.33;10.20;;;;;;;4.42;73.57;99140.63;4863237;29;20060;-78
2020/12/09 01:28:22;;;;;;;21.60;9.30;;;;;;;4.42;73.93;99130.03;4862044;29;20486;-78
2020/12/09 01:30:47;;;;;;;17.13;9.02;;;;;;;4.40;73.41;99127.63;4861814;29;20025;-78
2020/12/09 01:33:12;;;;;;;16.40;7.38;;;;;;;4.43;73.85;99132.47;4862263;29;20490;-78
2020/12/09 01:35:39;;;;;;;18.50;9.25;;;;;;;4.44;73.85;99127.97;4862815;29;20119;-80
2020/12/09 01:38:04;;;;;;;14.45;8.20;;;;;;;4.44;73.91;99136.75;4862019;29;20403;-79
2020/12/09 01:40:45;;;;;;;24.85;11.60;;;;;;;4.48;73.61;99132.56;4862874;29;20153;-80
2020/12/09 01:43:11;;;;;;;21.25;12.30;;;;;;;4.48;73.93;99137.09;4861618;29;20048;-79
2020/12/09 01:45:36;;;;;;;28.35;11.57;;;;;;;4.49;73.37;99130.72;4862137;29;20037;-80
2020/12/09 01:48:22;;;;;;;24.00;11.70;;;;;;;4.51;73.43;99131.31;4862935;29;20418;-80
2020/12/09 01:50:50;;;;;;;25.73;12.65;;;;;;;4.54;73.41;99124.72;4881972;29;20108;-79
2020/12/09 01:53:15;;;;;;;25.67;12.68;;;;;;;4.52;73.46;99122.31;4829988;29;20033;-79
2020/12/09 01:55:41;;;;;;;22.20;12.48;;;;;;;4.54;73.46;99122.91;4844057;29;20030;-80
2020/12/09 01:58:29;;;;;;;27.05;12.75;;;;;;;4.52;73.40;99124.97;4859592;29;20045;-81
2020/12/09 02:05:07;;;;;;;23.25;12.07;;;;;;;4.59;73.21;99108.94;4875080;29;20065;-81
2020/12/09 02:07:55;;;;;;;27.70;12.38;;;;;;;4.59;73.01;99115.06;4853777;29;20438;-80
2020/12/09 02:13:47;;;;;;;25.27;12.00;;;;;;;4.48;73.63;99114.03;4852782;29;20483;-79
2020/12/09 02:27:28;;;;;;;20.98;8.30;;;;;;;4.36;74.63;99110.63;4889716;23;20125;-80
2020/12/09 02:30:09;;;;;;;15.73;9.20;;;;;;;4.38;74.38;99105.91;4812263;29;20404;-81
2020/12/09 02:32:34;;;;;;;17.63;9.00;;;;;;;4.41;74.80;99108.06;4840815;29;20041;-80
2020/12/09 02:42:27;;;;;;;30.13;13.85;;;;;;;4.57;74.96;99111.81;4824528;29;20106;-82
2020/12/09 02:47:44;;;;;;;30.52;13.77;;;;;;;4.64;74.53;99103.75;4866350;29;20488;-79
2020/12/09 02:50:11;;;;;;;25.98;13.15;;;;;;;4.64;74.28;99112.50;4842362;29;20041;-79
2020/12/09 02:52:36;;;;;;;26.92;14.10;;;;;;;4.68;73.96;99112.03;4843701;29;20025;-78
2020/12/09 02:55:02;;;;;;;18.20;10.15;;;;;;;4.68;73.95;99115.47;4847893;29;20049;-80
2020/12/09 02:57:27;;;;;;;17.33;8.75;;;;;;;4.67;74.37;99113.88;4843275;29;20029;-80
2020/12/09 03:00:13;;;;;;;19.92;9.68;;;;;;;4.69;74.38;99110.97;4844609;29;20026;-81
2020/12/09 03:02:39;;;;;;;16.80;10.32;;;;;;;4.71;74.14;99106.25;4859251;29;20041;-78
2020/12/09 03:05:04;;;;;;;15.55;8.85;;;;;;;4.71;74.07;99100.97;4842220;29;20029;-79
2020/12/09 03:07:29;;;;;;;17.17;9.77;;;;;;;4.72;74.36;99100.72;4843418;29;20029;-79
2020/12/09 03:09:56;;;;;;;19.13;9.93;;;;;;;4.73;74.25;99104.97;4843031;29;20034;-80
2020/12/09 03:12:22;;;;;;;15.57;8.50;;;;;;;4.74;74.03;99111.91;4843635;29;20041;-81
2020/12/09 03:14:49;;;;;;;14.35;8.57;;;;;;;4.76;74.24;99109.00;4860433;29;20110;-81
2020/12/09 03:17:15;;;;;;;13.85;7.28;;;;;;;4.75;74.00;99107.41;4838049;29;20034;-80
2020/12/09 03:22:23;;;;;;;12.00;6.35;;;;;;;4.71;74.38;99117.69;5555402;23;20459;-79
2020/12/09 03:25:10;;;;;;;15.13;8.15;;;;;;;4.77;74.44;99126.50;4826877;29;20042;-81
2020/12/09 03:27:36;;;;;;;20.13;9.20;;;;;;;4.77;74.30;99123.84;4819441;29;20118;-79
2020/12/09 03:30:02;;;;;;;12.20;7.40;;;;;;;4.76;74.01;99114.28;4843943;29;20037;-79
2020/12/09 03:32:28;;;;;;;11.20;5.85;;;;;;;4.71;74.16;99116.84;4854292;29;20037;-79
2020/12/09 03:34:55;;;;;;;7.95;3.92;;;;;;;4.71;74.72;99117.69;4840630;29;20574;-80
2020/12/09 03:37:21;;;;;;;7.03;3.55;;;;;;;4.71;74.41;99120.31;4843223;29;20049;-80
2020/12/09 03:39:46;;;;;;;5.25;3.65;;;;;;;4.63;74.67;99118.84;4843437;29;20037;-78
2020/12/09 03:42:12;;;;;;;5.35;3.60;;;;;;;4.59;74.70;99123.00;4845947;29;20501;-79
2020/12/09 03:44:37;;;;;;;11.27;4.38;;;;;;;4.61;74.38;99114.81;4845958;29;20025;-79
2020/12/09 03:47:04;;;;;;;14.30;6.00;;;;;;;4.62;74.46;99122.50;4845534;29;20470;-79
2020/12/09 03:49:30;;;;;;;8.68;4.95;;;;;;;4.64;74.69;99122.31;4830909;29;20037;-79
2020/12/09 03:51:56;;;;;;;7.45;4.22;;;;;;;4.68;74.33;99127.94;4846183;29;20048;-79
2020/12/09 03:54:24;;;;;;;12.30;4.95;;;;;;;4.70;75.52;99128.50;4828209;29;20041;-80
2020/12/09 04:00:40;;;;;;;13.63;7.93;;;;;;;4.74;75.16;99132.28;4946905;23;20089;-82
2020/12/09 04:07:18;;;;;;;13.65;8.95;;;;;;;4.83;75.15;99127.41;4878550;29;20076;-81
2020/12/09 04:09:44;;;;;;;17.85;8.80;;;;;;;4.83;75.41;99124.78;4850039;29;20029;-80
2020/12/09 04:12:09;;;;;;;15.68;9.05;;;;;;;4.82;74.94;99121.31;4845936;29;20031;-79
2020/12/09 04:14:34;;;;;;;16.33;8.93;;;;;;;4.83;75.22;99120.25;4863532;29;20091;-78
2020/12/09 04:17:00;;;;;;;12.68;5.95;;;;;;;4.87;74.79;99123.25;4863325;29;20040;-78
2020/12/09 04:19:25;;;;;;;5.60;3.05;;;;;;;4.81;74.81;99122.38;4863657;29;20476;-78
2020/12/09 04:21:51;;;;;;;4.90;2.67;;;;;;;4.72;75.05;99115.81;4863962;29;20036;-79
2020/12/09 04:24:16;;;;;;;9.10;4.18;;;;;;;4.68;75.35;99120.00;4862953;29;20044;-79
2020/12/09 04:26:41;;;;;;;13.32;4.85;;;;;;;4.67;75.45;99123.69;4863563;29;20044;-78
2020/12/09 04:29:07;;;;;;;10.50;4.90;;;;;;;4.62;75.67;99119.06;4857305;29;20033;-78
2020/12/09 04:31:32;;;;;;;9.68;4.45;;;;;;;4.64;75.68;99143.50;4845204;29;20071;-78
2020/12/09 04:34:01;;;;;;;11.07;4.53;;;;;;;4.65;76.18;99127.34;4845467;29;20089;-79
2020/12/09 04:36:28;;;;;;;8.48;4.43;;;;;;;4.63;75.62;99126.00;4854893;29;20566;-79
2020/12/09 04:38:53;;;;;;;7.93;3.58;;;;;;;4.61;75.75;99125.41;4845187;29;20101;-78
2020/12/09 04:41:19;;;;;;;9.30;3.75;;;;;;;4.59;75.67;99135.41;4855351;29;20053;-80
2020/12/09 04:43:45;;;;;;;10.52;4.57;;;;;;;4.58;75.64;99131.19;4884302;29;20045;-81
2020/12/09 04:46:11;;;;;;;5.90;3.28;;;;;;;4.53;75.78;99123.94;4851486;29;20033;-81
2020/12/09 04:48:57;;;;;;;9.25;5.28;;;;;;;4.44;76.00;99118.22;4865558;29;20464;-80
2020/12/09 04:51:51;;;;;;;6.05;4.57;;;;;;;4.39;76.30;99136.63;4862473;29;20053;-80
2020/12/09 04:54:18;;;;;;;8.25;4.93;;;;;;;4.40;76.84;99134.78;4863025;29;20036;-79
2020/12/09 04:57:09;;;;;;;6.93;4.20;;;;;;;4.41;76.35;99134.56;4862089;29;20056;-79
2020/12/09 04:59:39;;;;;;;6.40;4.38;;;;;;;4.41;76.74;99142.50;4845946;29;20060;-79
2020/12/09 05:02:06;;;;;;;9.52;3.95;;;;;;;4.41;76.81;99150.44;4844439;29;20117;-79
2020/12/09 05:04:33;;;;;;;6.65;3.05;;;;;;;4.41;76.84;99150.44;4844535;29;20033;-79
2020/12/09 05:07:09;;;;;;;8.65;2.78;;;;;;;4.39;76.42;99149.84;4844805;29;20124;-79
2020/12/09 05:09:40;;;;;;;4.65;2.22;;;;;;;4.40;76.25;99162.06;4844511;29;20452;-79
2020/12/09 05:12:06;;;;;;;5.15;2.83;;;;;;;4.38;76.07;99148.28;4847014;29;20037;-82
2020/12/09 05:14:33;;;;;;;3.95;2.55;;;;;;;4.36;75.88;99154.81;4862540;29;20490;-81
2020/12/09 05:16:59;;;;;;;5.88;2.83;;;;;;;4.35;76.00;99167.25;4864417;29;20029;-81
2020/12/09 05:19:26;;;;;;;5.18;2.65;;;;;;;4.33;76.40;99170.13;4863817;29;20037;-81
2020/12/09 05:21:52;;;;;;;5.55;2.88;;;;;;;4.31;75.97;99166.13;4865254;29;20032;-81
2020/12/09 05:24:19;;;;;;;5.18;3.30;;;;;;;4.22;76.25;99156.91;4848111;29;20123;-79
2020/12/09 05:26:45;;;;;;;3.50;2.70;;;;;;;4.14;76.48;99158.06;4861652;29;20513;-79
2020/12/09 05:29:15;;;;;;;5.35;2.85;;;;;;;4.10;76.66;99160.38;4862172;29;20037;-79
2020/12/09 05:31:46;;;;;;;6.13;2.92;;;;;;;4.04;76.78;99156.00;4860170;29;20033;-79
2020/12/09 05:34:18;;;;;;;4.78;3.10;;;;;;;3.98;77.14;99154.28;4878544;29;20037;-80
2020/12/09 05:36:47;;;;;;;7.57;3.47;;;;;;;3.94;77.26;99150.47;4861875;29;20052;-80
2020/12/09 05:44:50;;;;;;;10.15;3.45;;;;;;;3.74;78.96;99148.94;4839871;29;20054;-75
2020/12/09 05:47:17;;;;;;;5.78;3.20;;;;;;;3.75;79.16;99147.91;4840852;29;20530;-75
2020/12/09 05:49:43;;;;;;;6.30;3.78;;;;;;;3.75;79.30;99136.50;4824904;29;20036;-76
2020/12/09 05:52:15;;;;;;;8.80;4.82;;;;;;;3.80;79.55;99152.53;4824880;29;20033;-77
2020/12/09 05:54:43;;;;;;;8.27;5.65;;;;;;;3.83;79.48;99152.88;4840764;29;20103;-77
2020/12/09 05:57:10;;;;;;;7.03;4.15;;;;;;;3.84;79.32;99140.44;4841472;29;20113;-78
2020/12/09 05:59:39;;;;;;;10.18;5.05;;;;;;;3.89;79.33;99143.19;4825041;29;20041;-77
2020/12/09 06:02:17;;;;;;;9.60;4.45;;;;;;;3.88;79.43;99152.16;4825200;29;20038;-77
2020/12/09 06:05:00;;;;;;;8.43;4.78;;;;;;;3.89;79.21;99143.19;4824636;29;20034;-78
2020/12/09 06:07:30;;;;;;;8.23;4.65;;;;;;;3.88;79.12;99144.22;4841194;29;20034;-78
2020/12/09 06:10:13;;;;;;;8.98;4.45;;;;;;;3.87;79.25;99147.94;4823475;29;20029;-78
2020/12/09 06:13:05;;;;;;;7.97;3.90;;;;;;;3.89;79.35;99153.78;4823729;29;20071;-77
2020/12/09 06:15:32;;;;;;;5.68;3.55;;;;;;;3.88;79.20;99162.75;4822079;29;20036;-77
2020/12/09 06:18:05;;;;;;;7.45;4.75;;;;;;;3.87;79.40;99171.75;4841483;29;20495;-79
2020/12/09 06:20:33;;;;;;;15.90;6.53;;;;;;;3.87;79.25;99163.00;4824680;29;20029;-76
2020/12/09 06:23:00;;;;;;;133.48;61.35;;;;;;;3.90;79.08;99165.97;4841547;29;20118;-78
2020/12/09 06:25:26;;;;;;;24.75;12.88;;;;;;;3.92;79.16;99174.50;4824305;29;20088;-78
2020/12/09 06:27:53;;;;;;;14.30;9.25;;;;;;;3.98;78.97;99175.44;4824943;29;20049;-78
2020/12/09 06:30:29;;;;;;;17.77;10.70;;;;;;;4.03;79.26;99172.91;4841153;29;20456;-78
2020/12/09 06:32:55;;;;;;;20.83;11.25;;;;;;;4.05;78.85;99162.88;4824477;29;20045;-78
2020/12/09 06:35:24;;;;;;;14.73;6.57;;;;;;;4.10;78.95;99170.97;4822982;29;20045;-77
2020/12/09 06:38:08;;;;;;;10.23;6.88;;;;;;;4.16;78.48;99174.50;4838157;29;20065;-76
2020/12/09 06:40:38;;;;;;;15.60;9.35;;;;;;;4.18;78.27;99175.09;4840112;29;20041;-76
2020/12/09 06:43:13;;;;;;;18.08;9.13;;;;;;;4.21;78.85;99171.16;4826172;29;20029;-75
2020/12/09 06:45:42;;;;;;;14.57;6.97;;;;;;;4.25;78.48;99173.13;4839812;29;20121;-76
2020/12/09 06:48:11;;;;;;;;;;;;;;;4.27;78.45;99171.06;4840774;29;20041;-75
2020/12/09 06:50:37;;;;;;;12.45;7.35;;;;;;;4.28;78.19;99170.00;4840046;29;20015;-76
2020/12/09 06:53:12;;;;;;;11.50;7.35;;;;;;;4.32;78.51;99179.13;4840773;29;20030;-77
2020/12/09 06:55:37;;;;;;;10.68;5.80;;;;;;;4.31;78.60;99160.81;4824055;29;20076;-77
2020/12/09 06:58:21;;;;;;;11.75;5.20;;;;;;;4.36;78.18;99163.56;4839983;29;20061;-73
2020/12/09 07:00:59;;;;;;;7.68;4.18;;;;;;;4.31;78.21;99168.75;4830456;29;20128;-75
2020/12/09 07:03:26;;;;;;;22.17;9.05;;;;;;;4.28;78.67;99163.91;4824032;29;20048;-74
2020/12/09 07:05:52;;;;;;;21.98;7.22;;;;;;;4.27;78.72;99157.84;4840258;29;20129;-76
2020/12/09 07:08:18;;;;;;;13.30;6.78;;;;;;;4.30;78.79;99161.84;4823947;29;20086;-76
2020/12/09 07:10:43;;;;;;;18.92;7.72;;;;;;;4.30;78.75;99157.34;4839993;29;20037;-74
2020/12/09 07:13:14;;;;;;;10.52;5.38;;;;;;;4.35;78.43;99153.22;4840431;29;20558;-75
2020/12/09 07:15:45;;;;;;;14.38;6.70;;;;;;;4.30;78.08;99156.56;4823511;29;20037;-76
2020/12/09 07:18:11;;;;;;;14.15;7.38;;;;;;;4.34;78.49;99152.41;4840408;29;20030;-78
2020/12/09 07:20:37;;;;;;;11.23;6.97;;;;;;;4.35;78.60;99159.31;4823814;29;20076;-79
2020/12/09 07:23:04;;;;;;;13.73;7.97;;;;;;;4.39;78.69;99149.84;4825706;29;20038;-78
2020/12/09 07:25:30;;;;;;;12.63;6.32;;;;;;;4.41;78.67;99142.50;4823948;29;20128;-78
2020/12/09 07:27:56;;;;;;;15.77;7.80;;;;;;;4.43;78.62;99145.72;4826843;29;20129;-78
2020/12/09 07:30:22;;;;;;;14.23;6.18;;;;;;;4.43;78.04;99143.06;4824083;29;20579;-78
2020/12/09 07:32:49;;;;;;;11.68;6.60;;;;;;;4.49;78.67;99157.22;4823963;29;20399;-77
2020/12/09 07:35:17;;;;;;;10.13;5.72;;;;;;;4.51;78.53;99178.97;4824587;29;20026;-79
2020/12/09 07:37:45;;;;;;;11.70;6.20;;;;;;;4.54;78.84;99178.53;4822633;29;20034;-78
2020/12/09 07:40:29;;;;;;;11.38;6.93;;;;;;;4.54;78.56;99173.22;4823633;29;20034;-78
2020/12/09 07:43:07;;;;;;;17.40;7.00;;;;;;;4.58;78.83;99181.50;4839491;29;20042;-79
2020/12/09 07:45:46;;;;;;;19.35;7.70;;;;;;;4.61;78.80;99173.09;4821230;29;20066;-78
2020/12/09 07:48:16;;;;;;;22.40;10.18;;;;;;;4.65;78.50;99168.91;4823794;29;20041;-78
2020/12/09 07:50:49;;;;;;;17.95;8.93;;;;;;;4.69;78.30;99164.78;4825901;29;20090;-79
2020/12/09 07:53:15;;;;;;;19.23;9.63;;;;;;;4.71;78.75;99169.84;4824189;29;20073;-80
2020/12/09 07:55:41;;;;;;;25.77;11.88;;;;;;;4.69;78.85;99164.78;4823620;29;20038;-78
2020/12/09 07:58:08;;;;;;;26.58;11.73;;;;;;;4.70;79.18;99163.75;4824929;29;20116;-79
2020/12/09 08:00:41;;;;;;;25.80;11.70;;;;;;;4.70;78.99;99182.28;4824110;29;20049;-79
2020/12/09 08:03:17;;;;;;;26.85;11.45;;;;;;;4.71;79.17;99175.13;4823323;29;20084;-79
2020/12/09 08:05:42;;;;;;;21.45;10.25;;;;;;;4.69;79.71;99174.56;4823157;29;20030;-79
2020/12/09 08:08:12;;;;;;;25.30;9.27;;;;;;;4.68;79.79;99178.28;4823476;29;20121;-79
2020/12/09 08:10:39;;;;;;;17.33;8.18;;;;;;;4.68;80.28;99180.91;4823193;29;20483;-79
2020/12/09 08:13:13;;;;;;;14.52;7.80;;;;;;;4.69;80.23;99178.03;4822915;29;20407;-79
2020/12/09 08:15:41;;;;;;;12.32;7.38;;;;;;;4.73;79.98;99173.06;4822498;29;20038;-80
2020/12/09 08:18:08;;;;;;;23.95;9.05;;;;;;;4.78;80.10;99171.31;4823027;29;20406;-77
2020/12/09 08:20:51;;;;;;;20.98;9.90;;;;;;;4.84;80.31;99169.56;4826398;29;20415;-79
2020/12/09 08:23:17;;;;;;;41.47;12.45;;;;;;;4.87;80.07;99173.59;4826528;29;20032;-78
2020/12/09 08:25:48;;;;;;;30.75;13.48;;;;;;;4.91;80.06;99172.09;4828793;29;20124;-82
2020/12/09 08:28:15;;;;;;;25.83;12.68;;;;;;;4.91;80.05;99157.00;4831675;29;20030;-81
2020/12/09 08:30:40;;;;;;;33.55;13.63;;;;;;;4.92;79.74;99163.09;4816473;29;20084;-80
2020/12/09 08:33:20;;;;;;;30.38;13.88;;;;;;;4.89;80.31;99168.88;4832007;29;20113;-81
2020/12/09 08:35:59;;;;;;;41.17;13.63;;;;;;;4.87;80.17;99165.66;4851507;29;20499;-80
2020/12/09 08:38:27;;;;;;;37.00;15.82;;;;;;;4.81;80.56;99170.06;4862528;29;20036;-80
2020/12/09 08:41:00;;;;;;;33.13;15.55;;;;;;;4.81;80.71;99173.50;4855079;29;20490;-80
2020/12/09 08:43:35;;;;;;;24.90;11.13;;;;;;;4.77;81.41;99163.59;4813607;29;20050;-80
2020/12/09 08:46:05;;;;;;;31.85;13.15;;;;;;;4.75;81.31;99160.41;4839121;29;20160;-80
2020/12/09 08:48:47;;;;;;;28.00;10.35;;;;;;;4.70;81.67;99154.97;4826147;29;20457;-81
2020/12/09 08:51:12;;;;;;;22.67;10.57;;;;;;;4.67;81.55;99148.31;4828168;29;20496;-80
2020/12/09 08:53:38;;;;;;;12.63;6.95;;;;;;;4.67;81.63;99150.16;4826260;29;20059;-79
2020/12/09 08:56:03;;;;;;;16.48;7.70;;;;;;;4.69;81.47;99151.53;4825948;29;20468;-79
2020/12/09 08:58:29;;;;;;;10.35;6.20;;;;;;;4.71;81.12;99146.00;4827305;29;20480;-80
2020/12/09 09:00:55;;;;;;;14.55;6.43;;;;;;;4.70;80.90;99144.38;4828064;29;20053;-80
2020/12/09 09:03:24;;;;;;;10.77;7.07;;;;;;;4.73;80.87;99136.78;4813356;29;20409;-80
2020/12/09 09:05:59;;;;;;;13.20;7.03;;;;;;;4.71;80.79;99132.75;4796539;29;20042;-80
2020/12/09 09:08:24;;;;;;;12.20;7.65;;;;;;;4.66;80.84;99130.81;4828483;29;20137;-79
2020/12/09 09:10:51;;;;;;;35.38;10.52;;;;;;;4.65;80.87;99131.84;4824674;29;20186;-79
2020/12/09 09:13:20;;;;;;;65.70;31.15;;;;;;;4.61;81.55;99125.41;4827108;29;20411;-80
2020/12/09 09:15:45;;;;;;;17.67;9.13;;;;;;;4.64;81.25;99123.09;4816419;29;20030;-80
2020/12/09 09:18:11;;;;;;;20.85;8.05;;;;;;;4.64;81.40;99128.41;4829360;29;20034;-79
2020/12/09 09:20:39;;;;;;;17.75;7.68;;;;;;;4.64;80.87;99127.59;4831029;29;20026;-82
2020/12/09 09:23:16;;;;;;;14.07;6.63;;;;;;;4.66;81.06;99128.16;4835180;29;20034;-80
2020/12/09 09:25:42;;;;;;;28.13;9.25;;;;;;;4.67;81.41;99123.69;4947479;23;20045;-80
2020/12/09 09:31:56;;;;;;;18.80;7.85;;;;;;;4.69;81.13;99116.28;5240651;23;20932;-78
2020/12/09 09:34:22;;;;;;;;;;;;;;;4.67;81.68;99103.28;4812148;29;20084;-81
2020/12/09 09:37:24;;;;;;;6.70;4.35;;;;;;;4.61;81.15;99089.16;4792844;29;19921;-80
2020/12/09 09:41:01;;;;;;;10.10;5.50;;;;;;;4.57;81.52;99095.94;4779445;29;20084;-81
2020/12/09 09:43:51;;;;;;;11.57;6.47;;;;;;;4.61;82.17;99091.78;4914011;23;20061;-80
2020/12/09 09:46:22;;;;;;;9.57;6.22;;;;;;;4.61;81.90;99089.16;4854272;29;20034;-80
2020/12/09 09:48:50;;;;;;;11.85;6.40;;;;;;;4.65;82.30;99090.28;4850780;29;20037;-79
2020/12/09 09:51:39;;;;;;;15.63;6.45;;;;;;;4.70;82.26;99086.91;4853696;29;20071;-80
2020/12/09 09:54:06;;;;;;;15.45;6.75;;;;;;;4.74;82.01;99084.59;4864301;29;20499;-81
2020/12/09 09:56:31;;;;;;;12.45;6.65;;;;;;;4.78;81.98;99075.94;4849921;29;20021;-80
2020/12/09 09:58:57;;;;;;;14.55;7.53;;;;;;;4.80;82.24;99067.75;4811495;29;20641;-79
2020/12/09 10:01:22;;;;;;;13.57;6.78;;;;;;;4.81;81.88;99072.03;4840458;29;20062;-78
2020/12/09 10:03:47;;;;;;;12.95;7.55;;;;;;;4.85;82.17;99073.16;4842375;29;20036;-78
2020/12/09 10:06:13;;;;;;;20.65;7.32;;;;;;;4.92;82.47;99068.50;4843055;29;20469;-77
2020/12/09 10:08:38;;;;;;;10.27;6.50;;;;;;;4.98;82.34;99064.13;4842911;29;20128;-78
2020/12/09 10:11:06;;;;;;;13.88;6.72;;;;;;;4.97;82.14;99055.34;4842994;29;20384;-78
2020/12/09 10:13:32;;;;;;;13.68;6.55;;;;;;;4.99;81.98;99056.94;4842691;29;20507;-78
2020/12/09 10:15:57;;;;;;;9.90;6.30;;;;;;;5.03;81.83;99053.59;4842810;29;20041;-78
2020/12/09 10:18:23;;;;;;;13.63;7.28;;;;;;;5.05;81.40;99045.41;4843891;29;20040;-78
2020/12/09 10:20:49;;;;;;;16.13;7.70;;;;;;;5.07;81.23;99041.44;4859888;29;20551;-79
2020/12/09 10:23:14;;;;;;;21.55;8.60;;;;;;;5.06;81.67;99033.75;4843357;29;20389;-78
2020/12/09 10:25:46;;;;;;;23.55;12.00;;;;;;;5.08;82.03;99039.63;4843179;29;20052;-79
2020/12/09 10:29:08;;;;;;;12.75;7.13;;;;;;;5.07;81.90;99036.16;4858355;29;20113;-80
2020/12/09 10:31:49;;;;;;;16.23;8.65;;;;;;;5.04;82.31;99028.69;5050197;24;20055;-81
2020/12/09 10:34:27;;;;;;;15.13;7.70;;;;;;;5.01;82.29;99029.16;4858351;29;20046;-82
2020/12/09 10:45:56;;;;;;;29.33;14.27;;;;;;;5.09;83.12;99023.47;5504673;23;20072;-80
2020/12/09 10:48:41;;;;;;;18.73;8.70;;;;;;;5.13;82.72;99018.50;4853106;29;20059;-80
2020/12/09 10:51:07;;;;;;;23.60;9.02;;;;;;;5.17;82.69;99013.53;4834383;29;20195;-78
2020/12/09 10:53:32;;;;;;;16.77;8.27;;;;;;;5.20;82.96;99013.84;4830119;29;20033;-78
2020/12/09 10:55:59;;;;;;;16.95;9.32;;;;;;;5.23;83.20;99012.56;4827341;29;21103;-77
2020/12/09 10:58:29;;;;;;;12.00;6.75;;;;;;;5.26;82.63;99007.56;4837077;29;20113;-78
2020/12/09 11:00:55;;;;;;;12.43;6.55;;;;;;;5.29;82.42;99003.63;4852800;29;20037;-79
2020/12/09 11:03:22;;;;;;;12.80;6.75;;;;;;;5.28;82.24;98997.53;4826651;29;20101;-79
2020/12/09 11:05:48;;;;;;;13.50;6.43;;;;;;;5.31;82.49;98995.41;4823565;29;20522;-79
2020/12/09 11:08:14;;;;;;;15.10;7.85;;;;;;;5.24;81.70;98985.78;4832183;29;20048;-78
2020/12/09 11:10:40;;;;;;;18.33;8.02;;;;;;;5.22;82.07;98974.59;4833042;29;20056;-78
2020/12/09 11:13:05;;;;;;;15.88;8.23;;;;;;;5.19;82.15;98987.53;4840957;29;20467;-79
2020/12/09 11:15:31;;;;;;;12.20;7.40;;;;;;;5.14;82.73;98985.66;4838119;29;20035;-79
2020/12/09 11:17:56;;;;;;;16.30;8.32;;;;;;;5.13;82.80;98982.16;4840754;29;20495;-79
2020/12/09 11:20:22;;;;;;;14.70;8.57;;;;;;;5.13;82.92;98982.16;4837310;29;20038;-80
2020/12/09 11:23:17;;;;;;;17.35;8.98;;;;;;;5.15;82.94;98966.03;4836447;29;20057;-81
2020/12/09 11:25:42;;;;;;;21.20;8.43;;;;;;;5.12;83.39;98961.22;4833381;29;20029;-81
2020/12/09 11:28:07;;;;;;;16.52;8.35;;;;;;;5.11;83.65;98973.69;4829022;29;20564;-80
2020/12/09 11:30:33;;;;;;;18.17;8.73;;;;;;;5.09;83.76;98978.41;4823590;29;20042;-80
2020/12/09 11:33:11;;;;;;;16.00;8.13;;;;;;;5.13;83.37;98989.34;4842992;29;20041;-82
2020/12/09 11:36:06;;;;;;;13.85;7.93;;;;;;;5.13;83.88;98984.81;4836612;29;20025;-78
2020/12/09 11:38:49;;;;;;;20.20;8.95;;;;;;;5.15;83.74;98992.56;4849285;29;20624;-80
2020/12/09 11:41:34;;;;;;;16.75;8.63;;;;;;;5.17;83.63;98987.78;4850744;29;20168;-79
2020/12/09 11:44:28;;;;;;;15.85;8.93;;;;;;;5.17;83.11;98993.09;4809805;29;20551;-79
2020/12/09 11:47:00;;;;;;;13.35;7.80;;;;;;;5.18;83.10;98989.41;4845979;29;20085;-80
2020/12/09 11:49:27;;;;;;;18.55;9.18;;;;;;;5.17;83.54;98966.59;4812406;29;20133;-80
2020/12/09 11:51:52;;;;;;;18.90;9.98;;;;;;;5.19;83.66;98971.63;4817308;29;20072;-79
2020/12/09 11:54:20;;;;;;;14.43;7.70;;;;;;;5.18;83.29;98970.06;4830621;29;20094;-80
2020/12/09 11:57:10;;;;;;;17.50;8.30;;;;;;;5.17;83.50;98979.06;4829542;29;20381;-80
2020/12/09 11:59:36;;;;;;;14.27;8.40;;;;;;;5.21;83.72;98975.69;4849072;29;20439;-80
2020/12/09 12:02:08;;;;;;;14.55;8.77;;;;;;;5.24;83.38;98977.03;4855317;29;20483;-79
2020/12/09 12:04:33;;;;;;;16.35;9.55;;;;;;;5.26;83.91;98972.28;4841166;29;20068;-79
2020/12/09 12:06:59;;;;;;;18.58;9.07;;;;;;;5.29;84.00;98969.16;4840596;29;20488;-79
2020/12/09 12:09:43;;;;;;;21.20;11.57;;;;;;;5.33;84.12;98959.66;4846460;29;20117;-81
2020/12/09 12:12:08;;;;;;;21.20;10.13;;;;;;;5.36;83.83;98974.28;4847501;29;20029;-79
2020/12/09 12:14:35;;;;;;;21.17;10.30;;;;;;;5.37;83.32;98955.50;4845143;29;20121;-77
2020/12/09 12:17:00;;;;;;;22.42;9.38;;;;;;;5.33;83.58;98954.34;4845337;29;20029;-78
2020/12/09 12:19:26;;;;;;;17.67;8.60;;;;;;;5.31;83.26;98956.47;4842457;29;20033;-78
2020/12/09 12:21:51;;;;;;;23.48;11.00;;;;;;;5.29;83.75;98948.72;4827274;29;20506;-78
2020/12/09 12:24:16;;;;;;;18.85;9.82;;;;;;;5.36;84.01;98958.38;4842178;29;20641;-77
2020/12/09 12:26:43;;;;;;;23.08;10.88;;;;;;;5.35;84.27;98944.31;4832760;29;20044;-78
2020/12/09 12:29:11;;;;;;;25.38;12.45;;;;;;;5.36;83.95;98945.09;4845850;29;20033;-80
2020/12/09 12:31:36;;;;;;;22.13;12.07;;;;;;;5.36;83.51;98937.16;4833761;29;20037;-80
2020/12/09 12:34:02;;;;;;;31.77;13.13;;;;;;;5.35;83.52;98915.16;4834864;29;20042;-77
2020/12/09 12:36:28;;;;;;;28.60;13.25;;;;;;;5.32;83.72;98915.63;4843753;29;20064;-78
2020/12/09 12:38:53;;;;;;;30.55;12.70;;;;;;;5.32;83.46;98926.22;4844664;29;20037;-79
2020/12/09 12:41:18;;;;;;;29.08;13.20;;;;;;;5.28;83.71;98918.00;4844907;29;20092;-79
2020/12/09 12:43:44;;;;;;;29.15;14.10;;;;;;;5.26;83.80;98912.13;4844683;29;20037;-79
2020/12/09 12:46:13;;;;;;;30.27;13.82;;;;;;;5.26;84.04;98911.28;4840452;29;20045;-79
2020/12/09 12:48:39;;;;;;;27.55;11.65;;;;;;;5.20;83.94;98910.44;4844448;29;20407;-80
2020/12/09 12:51:04;;;;;;;24.80;12.07;;;;;;;5.21;84.44;98901.44;4844788;29;20045;-78
2020/12/09 12:53:30;;;;;;;24.40;13.02;;;;;;;5.19;84.87;98889.44;4865338;29;20029;-79
2020/12/09 12:55:56;;;;;;;31.77;13.43;;;;;;;5.19;85.15;98886.81;4862090;29;20048;-79